MX-0178 weather

CLOSED Las Choapas Airport
Las Choapas, Veracruz, Mexico

Public forecast

Using degrees Celsius for public forecast. Weather courtesy of forecast.io.

METAR (pilot weather report)

Closest report is Minatitl├ín/Coatzacoalcos National Airport, 31.8 nm (58.8 km) WNW. Retrieved 2019/06/25 16:50 UTC (23 minutes ago):

MMMT 251650Z 00000KT 10SM SCT200 34/22 A2986 RMK 8/001

TAF (pilot weather forecast)

Forecast is more than 6 hours old.

Closest forecast is Minatitl├ín/Coatzacoalcos National Airport, 31.8 nm (58.8 km) WNW. Retrieved 2019/06/25 06:13 UTC (11 hours ago):

TAF MMMT 250506Z 2506/2606 13008KT P6SM SCT250 FM251800 16010KT P6SM SCT030 SCT120 BKN250 PROB40 2602/2606 4SM TSRA BKN020CB